createdAt,value
2019-01-29T00:00:13.487Z,1.70
2019-01-29T00:02:39.883Z,1.70
2019-01-29T00:05:06.405Z,1.70
2019-01-29T00:07:32.522Z,1.70
2019-01-29T00:09:58.608Z,1.80
2019-01-29T00:12:24.715Z,1.80
2019-01-29T00:14:50.981Z,1.70
2019-01-29T00:17:17.091Z,1.70
2019-01-29T00:19:43.195Z,1.70
2019-01-29T00:22:09.331Z,1.80
2019-01-29T00:24:35.547Z,1.70
2019-01-29T00:27:02.067Z,1.70
2019-01-29T00:29:30.646Z,1.70
2019-01-29T00:31:56.853Z,1.60
2019-01-29T00:34:23.082Z,1.70
2019-01-29T00:36:49.159Z,1.70
2019-01-29T00:39:15.302Z,1.70
2019-01-29T00:41:41.481Z,1.60
2019-01-29T00:44:07.584Z,1.70
2019-01-29T00:46:34.062Z,1.60
2019-01-29T00:49:00.134Z,1.60
2019-01-29T00:51:26.400Z,1.60
2019-01-29T00:53:52.532Z,1.60
2019-01-29T00:56:18.825Z,1.70
2019-01-29T00:58:44.952Z,1.70
2019-01-29T01:01:11.074Z,1.70
2019-01-29T01:03:37.164Z,1.60
2019-01-29T01:06:03.795Z,1.70
2019-01-29T01:08:29.989Z,1.70
2019-01-29T01:10:56.125Z,1.70
2019-01-29T01:13:22.249Z,1.70
2019-01-29T01:15:48.330Z,1.70
2019-01-29T01:18:14.584Z,1.70
2019-01-29T01:20:40.785Z,1.70
2019-01-29T01:23:07.031Z,1.60
2019-01-29T01:25:33.280Z,1.60
2019-01-29T01:27:59.635Z,1.60
2019-01-29T01:30:25.712Z,1.60
2019-01-29T01:32:51.841Z,1.60
2019-01-29T01:35:17.956Z,1.60
2019-01-29T01:37:44.157Z,1.60
2019-01-29T01:40:21.388Z,1.30
2019-01-29T01:42:47.738Z,1.30
2019-01-29T01:45:14.126Z,1.40
2019-01-29T01:47:40.208Z,1.40
2019-01-29T01:50:09.269Z,1.50
2019-01-29T01:52:35.492Z,1.40
2019-01-29T01:55:01.622Z,1.40
2019-01-29T01:57:27.678Z,1.40
2019-01-29T01:59:53.825Z,1.30
2019-01-29T02:02:19.966Z,1.30
2019-01-29T02:04:46.055Z,1.40
2019-01-29T02:07:12.374Z,1.40
2019-01-29T02:09:38.578Z,1.40
2019-01-29T02:12:04.698Z,1.40
2019-01-29T02:14:30.878Z,1.40
2019-01-29T02:16:56.980Z,1.50
2019-01-29T02:19:23.070Z,1.40
2019-01-29T02:21:49.178Z,1.40
2019-01-29T02:24:15.356Z,1.40
2019-01-29T02:26:41.461Z,1.30
2019-01-29T02:29:07.543Z,1.40
2019-01-29T02:31:33.693Z,1.30
2019-01-29T02:33:59.931Z,1.30
2019-01-29T02:36:26.000Z,1.30
2019-01-29T02:38:52.138Z,1.30
2019-01-29T02:41:18.243Z,1.40
2019-01-29T02:43:44.368Z,1.40
2019-01-29T02:46:10.587Z,1.40
2019-01-29T02:48:36.740Z,1.40
2019-01-29T02:51:03.225Z,1.60
2019-01-29T02:53:29.486Z,1.50
2019-01-29T02:55:55.615Z,1.40
2019-01-29T02:58:21.816Z,1.40
2019-01-29T03:00:48.058Z,1.40
2019-01-29T03:03:14.259Z,1.50
2019-01-29T03:05:40.489Z,1.40
2019-01-29T03:08:06.723Z,1.40
2019-01-29T03:10:33.076Z,1.40
2019-01-29T03:12:59.255Z,1.40
2019-01-29T03:15:30.017Z,1.60
2019-01-29T03:17:56.090Z,1.50
2019-01-29T03:20:22.326Z,1.60
2019-01-29T03:22:48.750Z,1.60
2019-01-29T03:25:15.131Z,1.60
2019-01-29T03:27:43.225Z,1.60
2019-01-29T03:30:12.148Z,1.50
2019-01-29T03:32:38.584Z,1.60
2019-01-29T03:35:06.380Z,1.50
2019-01-29T03:37:32.451Z,1.60
2019-01-29T03:39:58.586Z,1.70
2019-01-29T03:42:24.779Z,1.80
2019-01-29T03:44:51.025Z,1.80
2019-01-29T03:47:17.292Z,1.70
2019-01-29T03:49:43.387Z,1.70
2019-01-29T03:52:09.568Z,1.70
2019-01-29T03:54:35.671Z,1.70
2019-01-29T03:57:01.795Z,1.70
2019-01-29T03:59:27.949Z,1.70
2019-01-29T04:01:54.084Z,1.70
2019-01-29T04:04:20.156Z,1.80
2019-01-29T04:06:46.404Z,1.80
2019-01-29T04:09:12.881Z,1.90
2019-01-29T04:11:39.023Z,1.80
2019-01-29T04:14:05.213Z,1.80
2019-01-29T04:16:31.497Z,1.70
2019-01-29T04:18:57.733Z,1.70
2019-01-29T04:21:23.949Z,1.80
2019-01-29T04:23:50.016Z,1.90
2019-01-29T04:26:16.122Z,1.90
2019-01-29T04:28:42.233Z,1.80
2019-01-29T04:31:08.342Z,1.90
2019-01-29T04:33:34.453Z,2.00
2019-01-29T04:36:00.546Z,2.00
2019-01-29T04:38:26.622Z,1.80
2019-01-29T04:40:52.766Z,1.80
2019-01-29T04:43:18.982Z,1.80
2019-01-29T04:45:45.273Z,1.80
2019-01-29T04:48:11.384Z,1.80
2019-01-29T04:50:37.454Z,1.90
2019-01-29T04:53:03.564Z,1.80
2019-01-29T04:55:29.640Z,1.80
2019-01-29T04:57:55.736Z,1.80
2019-01-29T05:00:25.583Z,1.70
2019-01-29T05:02:52.030Z,1.70
2019-01-29T05:05:18.712Z,1.80
2019-01-29T05:07:44.803Z,1.70
2019-01-29T05:10:13.128Z,1.70
2019-01-29T05:12:39.346Z,1.70
2019-01-29T05:15:08.739Z,1.70
2019-01-29T05:17:34.814Z,1.70
2019-01-29T05:20:00.966Z,1.50
2019-01-29T05:22:27.135Z,1.50
2019-01-29T05:24:53.272Z,1.50
2019-01-29T05:27:19.390Z,1.50
2019-01-29T05:29:45.798Z,1.50
2019-01-29T05:32:11.924Z,1.50
2019-01-29T05:34:38.008Z,1.50
2019-01-29T05:37:04.189Z,1.50
2019-01-29T05:39:30.333Z,1.50
2019-01-29T05:41:56.528Z,1.50
2019-01-29T05:44:22.654Z,1.40
2019-01-29T05:46:48.792Z,1.30
2019-01-29T05:49:14.872Z,1.30
2019-01-29T05:51:41.086Z,1.30
2019-01-29T05:54:15.843Z,1.40
2019-01-29T05:56:35.584Z,1.30
2019-01-29T05:59:01.821Z,1.40
2019-01-29T06:01:27.923Z,1.40
2019-01-29T06:03:54.009Z,1.40
2019-01-29T06:06:20.204Z,1.40
2019-01-29T06:08:46.296Z,1.50
2019-01-29T06:11:12.412Z,1.60
2019-01-29T06:13:38.540Z,1.70
2019-01-29T06:16:04.812Z,1.70
2019-01-29T06:18:30.907Z,1.50
2019-01-29T06:20:56.991Z,1.50
2019-01-29T06:23:23.350Z,1.60
2019-01-29T06:25:49.583Z,1.50
2019-01-29T06:28:15.801Z,1.50
2019-01-29T06:30:41.919Z,1.50
2019-01-29T06:33:08.106Z,1.50
2019-01-29T06:35:34.254Z,1.50
2019-01-29T06:38:00.388Z,1.50
2019-01-29T06:40:27.359Z,1.50
2019-01-29T06:42:53.619Z,1.50
2019-01-29T06:45:21.621Z,1.40
2019-01-29T06:47:48.053Z,1.60
2019-01-29T06:50:19.175Z,1.60
2019-01-29T06:52:45.312Z,1.60
2019-01-29T06:55:16.281Z,1.50
2019-01-29T06:57:42.456Z,1.60
2019-01-29T07:00:14.740Z,1.60
2019-01-29T07:02:41.571Z,1.50
2019-01-29T07:05:08.085Z,1.50
2019-01-29T07:07:34.233Z,1.50
2019-01-29T07:10:00.337Z,1.50
2019-01-29T07:12:26.523Z,1.50
2019-01-29T07:14:52.697Z,1.50
2019-01-29T07:17:20.967Z,1.50
2019-01-29T07:19:47.177Z,1.50
2019-01-29T07:22:13.531Z,1.50
2019-01-29T07:24:42.880Z,1.50
2019-01-29T07:27:07.823Z,1.50
2019-01-29T07:29:34.089Z,1.50
2019-01-29T07:32:00.358Z,1.40
2019-01-29T07:34:26.589Z,1.40
2019-01-29T07:36:52.787Z,1.40
2019-01-29T07:39:18.883Z,1.40
2019-01-29T07:41:45.029Z,1.40
2019-01-29T07:44:11.328Z,1.50
2019-01-29T07:46:37.457Z,1.50
2019-01-29T07:49:03.869Z,1.60
2019-01-29T07:51:30.095Z,1.60
2019-01-29T07:53:56.432Z,1.60
2019-01-29T07:56:22.615Z,1.60
2019-01-29T07:58:49.298Z,1.50
2019-01-29T08:01:15.681Z,1.40
2019-01-29T08:03:41.751Z,1.40
2019-01-29T08:06:07.918Z,1.40
2019-01-29T08:08:34.095Z,1.60
2019-01-29T08:11:00.287Z,1.60
2019-01-29T08:13:26.517Z,1.60
2019-01-29T08:15:52.688Z,1.70
2019-01-29T08:18:20.564Z,1.60
2019-01-29T08:20:47.333Z,1.70
2019-01-29T08:23:13.453Z,1.60
2019-01-29T08:25:47.419Z,1.70
2019-01-29T08:28:07.749Z,1.70
2019-01-29T08:30:33.967Z,1.80
2019-01-29T08:33:00.271Z,1.80
2019-01-29T08:35:26.584Z,1.80
2019-01-29T08:37:52.722Z,1.70
2019-01-29T08:40:18.938Z,1.80
2019-01-29T08:42:45.188Z,1.80
2019-01-29T08:45:16.991Z,1.80
2019-01-29T08:47:43.339Z,1.80
2019-01-29T08:50:13.240Z,1.70
2019-01-29T08:52:39.444Z,1.70
2019-01-29T08:55:10.741Z,1.70
2019-01-29T08:57:34.220Z,1.80
2019-01-29T09:00:00.450Z,1.80
2019-01-29T09:02:26.751Z,1.70
2019-01-29T09:04:52.908Z,1.70
2019-01-29T09:07:19.128Z,1.80
2019-01-29T09:09:45.288Z,1.80
2019-01-29T09:12:11.554Z,1.90
2019-01-29T09:14:37.760Z,1.90
2019-01-29T09:17:04.084Z,2.10
2019-01-29T09:19:30.220Z,2.20
2019-01-29T09:21:56.342Z,2.00
2019-01-29T09:24:22.562Z,1.90
2019-01-29T09:26:48.856Z,2.00
2019-01-29T09:29:17.826Z,2.10
2019-01-29T09:31:43.028Z,2.20
2019-01-29T09:34:09.206Z,2.10
2019-01-29T09:36:35.382Z,2.20
2019-01-29T09:39:01.546Z,2.10
2019-01-29T09:41:27.698Z,2.10
2019-01-29T09:43:53.823Z,2.10
2019-01-29T09:46:19.930Z,2.10
2019-01-29T09:48:46.214Z,2.10
2019-01-29T09:51:12.604Z,2.00
2019-01-29T09:53:38.688Z,1.90
2019-01-29T09:56:04.956Z,2.10
2019-01-29T09:58:31.132Z,2.20
2019-01-29T10:00:57.365Z,2.30
2019-01-29T10:03:23.464Z,2.40
2019-01-29T10:05:49.576Z,2.40
2019-01-29T10:08:15.692Z,2.50
2019-01-29T10:10:41.920Z,2.40
2019-01-29T10:13:08.035Z,2.40
2019-01-29T10:15:35.533Z,2.70
2019-01-29T10:18:01.759Z,2.80
2019-01-29T10:20:28.607Z,2.70
2019-01-29T10:22:54.934Z,2.60
2019-01-29T10:25:21.468Z,2.70
2019-01-29T10:27:47.768Z,2.60
2019-01-29T10:30:16.975Z,2.60
2019-01-29T10:32:43.226Z,2.80
2019-01-29T10:35:14.818Z,2.90
2019-01-29T10:37:41.087Z,2.80
2019-01-29T10:40:10.725Z,2.70
2019-01-29T10:42:37.049Z,2.70
2019-01-29T10:45:06.277Z,2.70
2019-01-29T10:47:32.448Z,3.00
2019-01-29T10:49:58.532Z,3.10
2019-01-29T10:52:24.746Z,3.10
2019-01-29T10:54:50.877Z,3.10
2019-01-29T10:57:17.004Z,3.10
2019-01-29T10:59:43.276Z,3.00
2019-01-29T11:02:09.446Z,3.00
2019-01-29T11:04:35.589Z,2.90
2019-01-29T11:07:01.970Z,3.00
2019-01-29T11:09:28.142Z,3.30
2019-01-29T11:11:54.263Z,3.30
2019-01-29T11:14:20.381Z,3.30
2019-01-29T11:16:46.463Z,3.30
2019-01-29T11:19:12.563Z,3.20
2019-01-29T11:21:38.663Z,3.20
2019-01-29T11:24:05.091Z,3.40
2019-01-29T11:26:31.261Z,3.10
2019-01-29T11:28:57.506Z,3.20
2019-01-29T11:31:23.692Z,3.30
2019-01-29T11:33:49.761Z,3.20
2019-01-29T11:36:15.922Z,3.30
2019-01-29T11:38:42.099Z,3.50
2019-01-29T11:41:08.219Z,3.40
2019-01-29T11:43:34.409Z,3.40
2019-01-29T11:46:00.801Z,3.20
2019-01-29T11:48:27.042Z,3.30
2019-01-29T11:50:53.215Z,3.30
2019-01-29T11:53:19.297Z,3.10
2019-01-29T11:55:45.392Z,3.00
2019-01-29T11:58:11.699Z,3.20
2019-01-29T12:00:40.135Z,3.30
2019-01-29T12:03:06.596Z,3.10
2019-01-29T12:05:33.202Z,3.20
2019-01-29T12:07:59.482Z,3.40
2019-01-29T12:10:25.903Z,3.30
2019-01-29T12:12:52.150Z,3.40
2019-01-29T12:15:19.656Z,3.50
2019-01-29T12:17:45.963Z,3.60
2019-01-29T12:20:17.602Z,3.70
2019-01-29T12:22:43.887Z,3.70
2019-01-29T12:25:10.504Z,3.40
2019-01-29T12:27:36.632Z,3.50
2019-01-29T12:30:06.680Z,3.60
2019-01-29T12:32:32.893Z,3.50
2019-01-29T12:34:58.991Z,3.50
2019-01-29T12:37:25.250Z,3.30
2019-01-29T12:39:51.431Z,3.20
2019-01-29T12:42:17.506Z,3.00
2019-01-29T12:44:43.738Z,3.20
2019-01-29T12:47:10.035Z,3.20
2019-01-29T12:49:36.169Z,3.20
2019-01-29T12:52:03.962Z,3.00
2019-01-29T12:54:30.185Z,3.10
2019-01-29T12:56:56.427Z,2.90
2019-01-29T12:59:22.536Z,2.90
2019-01-29T13:01:48.638Z,3.10
2019-01-29T13:04:14.758Z,3.20
2019-01-29T13:06:40.899Z,3.50
2019-01-29T13:09:07.978Z,3.50
2019-01-29T13:11:34.141Z,3.30
2019-01-29T13:14:00.396Z,3.20
2019-01-29T13:16:26.502Z,3.50
2019-01-29T13:18:52.628Z,3.50
2019-01-29T13:21:18.726Z,3.40
2019-01-29T13:23:44.860Z,3.10
2019-01-29T13:26:11.090Z,3.00
2019-01-29T13:28:37.182Z,3.10
2019-01-29T13:31:03.471Z,3.20
2019-01-29T13:33:29.766Z,3.30
2019-01-29T13:35:56.058Z,3.40
2019-01-29T13:38:22.251Z,3.30
2019-01-29T13:40:48.416Z,3.30
2019-01-29T13:43:14.590Z,3.30
2019-01-29T13:45:41.081Z,3.20
2019-01-29T13:48:07.469Z,3.20
2019-01-29T13:50:39.954Z,3.10
2019-01-29T13:53:06.183Z,3.20
2019-01-29T13:55:32.414Z,3.20
2019-01-29T13:57:58.596Z,3.10
2019-01-29T14:00:30.612Z,3.10
2019-01-29T14:02:56.979Z,3.10
2019-01-29T14:05:23.282Z,3.00
2019-01-29T14:07:49.488Z,3.10
2019-01-29T14:10:16.230Z,2.90
2019-01-29T14:12:42.806Z,2.90
2019-01-29T14:15:14.046Z,2.80
2019-01-29T14:17:40.394Z,2.80
2019-01-29T14:20:10.390Z,2.80
2019-01-29T14:22:36.482Z,2.80
2019-01-29T14:25:04.884Z,2.90
2019-01-29T14:27:31.151Z,3.00
2019-01-29T14:29:57.246Z,3.10
2019-01-29T14:32:23.466Z,3.30
2019-01-29T14:34:49.721Z,3.30
2019-01-29T14:37:16.070Z,3.10
2019-01-29T14:39:46.187Z,3.00
2019-01-29T14:42:12.322Z,3.10
2019-01-29T14:44:38.746Z,3.10
2019-01-29T14:47:05.086Z,3.10
2019-01-29T14:49:31.197Z,3.20
2019-01-29T14:51:57.300Z,3.10
2019-01-29T14:54:23.401Z,3.10
2019-01-29T14:56:56.645Z,3.20
2019-01-29T14:59:17.749Z,3.20
2019-01-29T15:01:44.153Z,3.10
2019-01-29T15:04:10.327Z,3.00
2019-01-29T15:06:36.581Z,3.00
2019-01-29T15:09:05.797Z,3.00
2019-01-29T15:11:32.035Z,3.10
2019-01-29T15:13:58.257Z,3.10
2019-01-29T15:16:38.808Z,3.00
2019-01-29T15:19:06.998Z,3.00
2019-01-29T15:21:37.950Z,3.00
2019-01-29T15:24:01.402Z,3.00
2019-01-29T15:26:27.577Z,3.00
2019-01-29T15:28:53.756Z,3.00
2019-01-29T15:31:19.884Z,2.90
2019-01-29T15:33:46.020Z,3.00
2019-01-29T15:36:12.411Z,3.00
2019-01-29T15:38:38.582Z,2.90
2019-01-29T15:41:04.901Z,2.80
2019-01-29T15:43:31.271Z,2.70
2019-01-29T15:45:57.431Z,2.70
2019-01-29T15:48:23.529Z,2.70
2019-01-29T15:50:49.659Z,2.60
2019-01-29T15:53:15.762Z,2.50
2019-01-29T15:55:41.909Z,2.50
2019-01-29T15:58:08.433Z,2.50
2019-01-29T16:00:36.847Z,2.50
2019-01-29T16:03:03.680Z,2.40
2019-01-29T16:05:32.545Z,2.30
2019-01-29T16:07:58.942Z,2.30
2019-01-29T16:10:39.118Z,2.30
2019-01-29T16:12:59.071Z,2.20
2019-01-29T16:15:27.113Z,2.20
2019-01-29T16:17:53.340Z,2.10
2019-01-29T16:20:21.183Z,2.10
2019-01-29T16:22:48.152Z,2.10
2019-01-29T16:25:20.586Z,2.10
2019-01-29T16:27:47.333Z,2.10
2019-01-29T16:30:19.241Z,2.10
2019-01-29T16:32:45.645Z,2.00
2019-01-29T16:35:15.024Z,1.90
2019-01-29T16:37:42.990Z,1.80
2019-01-29T16:40:15.560Z,1.80
2019-01-29T16:42:41.667Z,1.80
2019-01-29T16:45:11.591Z,1.80
2019-01-29T16:47:37.888Z,1.80
2019-01-29T16:50:07.908Z,1.80
2019-01-29T16:52:33.978Z,1.70
2019-01-29T16:55:00.275Z,1.70
2019-01-29T16:57:31.539Z,1.60
2019-01-29T16:59:54.514Z,1.50
2019-01-29T17:02:20.581Z,1.50
2019-01-29T17:04:46.707Z,1.40
2019-01-29T17:07:12.822Z,1.40
2019-01-29T17:09:39.351Z,1.40
2019-01-29T17:12:05.530Z,1.40
2019-01-29T17:14:31.612Z,1.30
2019-01-29T17:16:57.758Z,1.30
2019-01-29T17:19:23.883Z,1.20
2019-01-29T17:21:50.104Z,1.20
2019-01-29T17:24:16.201Z,1.20
2019-01-29T17:26:42.494Z,1.20
2019-01-29T17:29:08.920Z,1.20
2019-01-29T17:31:35.166Z,1.10
2019-01-29T17:34:01.414Z,1.10
2019-01-29T17:36:27.608Z,1.10
2019-01-29T17:38:54.120Z,1.00
2019-01-29T17:41:20.261Z,1.00
2019-01-29T17:43:46.434Z,0.90
2019-01-29T17:46:12.588Z,1.00
2019-01-29T17:48:38.747Z,1.00
2019-01-29T17:51:05.063Z,1.00
2019-01-29T17:53:31.353Z,1.00
2019-01-29T17:55:57.635Z,0.90
2019-01-29T17:58:23.776Z,1.00
2019-01-29T18:00:52.108Z,0.90
2019-01-29T18:03:18.329Z,0.90
2019-01-29T18:05:44.784Z,0.80
2019-01-29T18:08:10.908Z,0.70
2019-01-29T18:10:37.102Z,0.80
2019-01-29T18:13:03.450Z,0.80
2019-01-29T18:15:30.334Z,0.80
2019-01-29T18:17:56.783Z,0.70
2019-01-29T18:20:23.363Z,0.70
2019-01-29T18:22:49.638Z,0.70
2019-01-29T18:25:16.127Z,0.80
2019-01-29T18:27:42.750Z,0.60
2019-01-29T18:30:25.649Z,0.70
2019-01-29T18:32:51.994Z,0.60
2019-01-29T18:35:18.546Z,0.50
2019-01-29T18:37:44.809Z,0.50
2019-01-29T18:40:17.111Z,0.50
2019-01-29T18:42:43.294Z,0.50
2019-01-29T18:45:11.009Z,0.40
2019-01-29T18:47:37.196Z,0.40
2019-01-29T18:50:09.875Z,0.40
2019-01-29T18:52:36.122Z,0.40
2019-01-29T18:55:03.446Z,0.40
2019-01-29T18:57:29.742Z,0.30
2019-01-29T18:59:55.901Z,0.30
2019-01-29T19:02:22.073Z,0.30
2019-01-29T19:04:48.222Z,0.40
2019-01-29T19:07:14.611Z,0.40
2019-01-29T19:09:40.846Z,0.40
2019-01-29T19:12:07.062Z,0.30
2019-01-29T19:14:33.129Z,0.40
2019-01-29T19:16:59.344Z,0.40
2019-01-29T19:19:25.453Z,0.40
2019-01-29T19:21:51.607Z,0.40
2019-01-29T19:24:17.796Z,0.30
2019-01-29T19:26:43.941Z,0.40
2019-01-29T19:29:10.151Z,0.30
2019-01-29T19:31:36.253Z,0.30
2019-01-29T19:34:02.899Z,0.30
2019-01-29T19:36:29.126Z,0.40
2019-01-29T19:38:55.449Z,0.40
2019-01-29T19:41:21.579Z,0.30
2019-01-29T19:43:47.796Z,0.30
2019-01-29T19:46:13.995Z,0.20
2019-01-29T19:48:40.233Z,0.10
2019-01-29T19:51:06.423Z,0.10
2019-01-29T19:53:32.577Z,0.10
2019-01-29T19:55:58.902Z,0.10
2019-01-29T19:58:32.123Z,0.10
2019-01-29T20:00:53.333Z,0.10
2019-01-29T20:03:19.589Z,0.00
2019-01-29T20:05:45.879Z,0.00
2019-01-29T20:08:12.126Z,0.10
2019-01-29T20:10:38.471Z,0.10
2019-01-29T20:13:04.854Z,0.00
2019-01-29T20:15:31.123Z,0.00
2019-01-29T20:17:57.922Z,0.00
2019-01-29T20:20:27.903Z,-0.10
2019-01-29T20:22:54.071Z,-0.20
2019-01-29T20:25:20.201Z,-0.20
2019-01-29T20:27:46.337Z,-0.20
2019-01-29T20:30:16.245Z,-0.30
2019-01-29T20:32:42.321Z,-0.30
2019-01-29T20:35:08.505Z,-0.20
2019-01-29T20:37:34.697Z,-0.20
2019-01-29T20:40:00.915Z,-0.30
2019-01-29T20:42:27.060Z,-0.30
2019-01-29T20:44:53.241Z,-0.30
2019-01-29T20:47:19.352Z,-0.30
2019-01-29T20:49:45.700Z,-0.20
2019-01-29T20:52:31.859Z,-0.20
2019-01-29T20:54:58.094Z,-0.30
2019-01-29T20:57:24.207Z,-0.30
2019-01-29T20:59:50.437Z,-0.30
2019-01-29T21:02:16.730Z,-0.40
2019-01-29T21:04:43.018Z,-0.30
2019-01-29T21:07:09.318Z,-0.30
2019-01-29T21:09:35.657Z,-0.30
2019-01-29T21:12:01.979Z,-0.40
2019-01-29T21:14:28.436Z,-0.40
2019-01-29T21:16:54.574Z,-0.40
2019-01-29T21:19:20.672Z,-0.40
2019-01-29T21:21:46.798Z,-0.40
2019-01-29T21:24:12.914Z,-0.30
2019-01-29T21:26:39.013Z,-0.30
2019-01-29T21:29:05.370Z,-0.40
2019-01-29T21:31:31.551Z,-0.50
2019-01-29T21:33:57.768Z,-0.50
2019-01-29T21:36:23.849Z,-0.50
2019-01-29T21:38:49.983Z,-0.50
2019-01-29T21:41:16.067Z,-0.50
2019-01-29T21:43:42.170Z,-0.50
2019-01-29T21:46:08.248Z,-0.60
2019-01-29T21:48:34.421Z,-0.60
2019-01-29T21:51:00.604Z,-0.50
2019-01-29T21:53:26.831Z,-0.60
2019-01-29T21:55:52.940Z,-0.60
2019-01-29T21:58:19.260Z,-0.60
2019-01-29T22:00:45.620Z,-0.50
2019-01-29T22:03:11.906Z,-0.50
2019-01-29T22:05:38.390Z,-0.60
2019-01-29T22:08:06.029Z,-0.60
2019-01-29T22:10:32.696Z,-0.60
2019-01-29T22:12:59.183Z,-0.70
2019-01-29T22:15:25.552Z,-0.70
2019-01-29T22:17:51.819Z,-0.70
2019-01-29T22:20:20.796Z,-0.70
2019-01-29T22:22:47.268Z,-0.70
2019-01-29T22:25:15.384Z,-0.60
2019-01-29T22:27:41.781Z,-0.80
2019-01-29T22:30:11.781Z,-0.70
2019-01-29T22:32:39.780Z,-0.60
2019-01-29T22:35:06.332Z,-0.60
2019-01-29T22:37:32.649Z,-0.60
2019-01-29T22:39:58.791Z,-0.70
2019-01-29T22:42:25.090Z,-0.70
2019-01-29T22:44:51.261Z,-0.80
2019-01-29T22:47:17.407Z,-0.80
2019-01-29T22:49:43.868Z,-0.80
2019-01-29T22:52:10.178Z,-0.80
2019-01-29T22:54:36.631Z,-0.80
2019-01-29T22:57:03.059Z,-0.80
2019-01-29T22:59:33.299Z,-0.80
2019-01-29T23:01:57.198Z,-0.80
2019-01-29T23:04:23.398Z,-0.80
2019-01-29T23:06:51.221Z,-0.80
2019-01-29T23:09:17.431Z,-0.90
2019-01-29T23:11:43.639Z,-0.90
2019-01-29T23:14:10.005Z,-0.90
2019-01-29T23:16:36.301Z,-0.90
2019-01-29T23:19:03.174Z,-0.80
2019-01-29T23:21:29.473Z,-0.90
2019-01-29T23:23:55.601Z,-0.90
2019-01-29T23:26:21.839Z,-0.90
2019-01-29T23:28:47.941Z,-0.90
2019-01-29T23:31:14.254Z,-0.90
2019-01-29T23:33:40.485Z,-0.90
2019-01-29T23:36:06.779Z,-1.00
2019-01-29T23:38:32.902Z,-0.90
2019-01-29T23:40:59.263Z,-0.90
2019-01-29T23:43:25.561Z,-1.00
2019-01-29T23:45:51.752Z,-1.00
2019-01-29T23:48:17.849Z,-1.00
2019-01-29T23:50:43.975Z,-1.00
2019-01-29T23:53:10.098Z,-1.00
2019-01-29T23:55:36.439Z,-1.00
2019-01-29T23:58:03.173Z,-1.00
